TimeBST,TemperatureF,Dew PointF,Humidity,Sea Level PressureIn,VisibilityMPH,Wind Direction,Wind SpeedMPH,Gust SpeedMPH,PrecipitationIn,Events,Conditions,WindDirDegrees,DateUTC
1:00 AM,60,57,86,29.84,9,South,15.0,,,Rain,Light Rain,190,2013-10-21 00:00:00
3:50 AM,59.0,57.2,94,29.80,6.2,South,15.0,-,N/A,,Partly Cloudy,190,2013-10-21 02:50:00
4:20 AM,59.0,57.2,94,29.80,6.2,South,12.7,-,N/A,,Partly Cloudy,180,2013-10-21 03:20:00
4:50 AM,59.0,57.2,94,29.80,6.2,South,18.4,-,N/A,,Partly Cloudy,180,2013-10-21 03:50:00
5:20 AM,59.0,57.2,94,29.77,6.2,South,17.3,-,N/A,Rain,Light Rain,180,2013-10-21 04:20:00
5:50 AM,59.0,57.2,94,29.77,6.2,South,19.6,-,N/A,Rain,Light Rain,180,2013-10-21 04:50:00
6:20 AM,59.0,57.2,94,29.77,5.0,South,16.1,-,N/A,Rain,Light Rain,180,2013-10-21 05:20:00
6:50 AM,59.0,57.2,94,29.77,6.2,South,15.0,-,N/A,,Mostly Cloudy,180,2013-10-21 05:50:00
7:00 AM,60,58,90,29.77,12,South,17.3,,,Rain,Light Rain,180,2013-10-21 06:00:00
7:20 AM,60.8,57.2,88,29.77,6.2,South,15.0,-,N/A,,Scattered Clouds,180,2013-10-21 06:20:00
7:50 AM,60.8,57.2,88,29.77,6.2,SSW,18.4,-,N/A,,Mostly Cloudy,200,2013-10-21 06:50:00
8:20 AM,60.8,57.2,88,29.77,6.2,South,16.1,-,N/A,,Partly Cloudy,180,2013-10-21 07:20:00
8:50 AM,60.8,57.2,88,29.77,6.2,South,23.0,-,N/A,,Partly Cloudy,180,2013-10-21 07:50:00
9:20 AM,60.8,57.2,88,29.77,6.2,South,21.9,-,N/A,,Partly Cloudy,170,2013-10-21 08:20:00
9:50 AM,60.8,57.2,88,29.77,6.2,South,20.7,-,N/A,,Partly Cloudy,170,2013-10-21 08:50:00
10:00 AM,61,56,80,29.77,16,South,19.6,,,,,180,2013-10-21 09:00:00
10:20 AM,60.8,55.4,82,29.77,6.2,South,18.4,-,N/A,,Partly Cloudy,180,2013-10-21 09:20:00
10:50 AM,62.6,55.4,77,29.74,6.2,South,20.7,-,N/A,,Partly Cloudy,180,2013-10-21 09:50:00
11:20 AM,62.6,57.2,82,29.74,6.2,South,16.1,-,N/A,,Partly Cloudy,170,2013-10-21 10:20:00
11:50 AM,62.6,57.2,82,29.74,6.2,South,15.0,-,N/A,,Partly Cloudy,170,2013-10-21 10:50:00
12:20 PM,60.8,57.2,88,29.74,6.2,South,16.1,-,N/A,Rain,Light Rain Showers,180,2013-10-21 11:20:00
12:50 PM,62.6,57.2,82,29.74,6.2,South,13.8,-,N/A,,Partly Cloudy,170,2013-10-21 11:50:00
1:00 PM,62,58,82,29.74,19,South,17.3,,,Rain,Light Rain Showers,170,2013-10-21 12:00:00
1:20 PM,62.6,57.2,82,29.74,6.2,South,15.0,-,N/A,,Scattered Clouds,180,2013-10-21 12:20:00
1:50 PM,64.4,59.0,83,29.71,6.2,South,15.0,-,N/A,,Partly Cloudy,170,2013-10-21 12:50:00
2:20 PM,64.4,59.0,83,29.71,6.2,South,13.8,-,N/A,,Partly Cloudy,180,2013-10-21 13:20:00
2:50 PM,64.4,59.0,83,29.71,6.2,South,15.0,-,N/A,,Partly Cloudy,170,2013-10-21 13:50:00
3:20 PM,64.4,59.0,83,29.71,6.2,South,15.0,-,N/A,,Partly Cloudy,190,2013-10-21 14:20:00
3:50 PM,62.6,59.0,88,29.71,6.2,South,11.5,-,N/A,,Partly Cloudy,190,2013-10-21 14:50:00
4:00 PM,62,58,84,29.71,9,SSW,19.6,,,Rain,Light Rain Showers,200,2013-10-21 15:00:00
4:20 PM,62.6,59.0,88,29.71,6.2,SSW,13.8,-,N/A,,Partly Cloudy,200,2013-10-21 15:20:00
4:50 PM,62.6,57.2,82,29.68,6.2,SSW,13.8,-,N/A,,Partly Cloudy,200,2013-10-21 15:50:00
5:20 PM,62.6,57.2,82,29.68,6.2,South,10.4,-,N/A,,Partly Cloudy,170,2013-10-21 16:20:00
5:50 PM,64.4,57.2,77,29.68,6.2,South,10.4,-,N/A,,Partly Cloudy,170,2013-10-21 16:50:00
6:20 PM,62.6,57.2,82,29.68,6.2,South,17.3,-,N/A,,Partly Cloudy,180,2013-10-21 17:20:00
6:50 PM,62.6,55.4,77,29.68,6.2,South,16.1,-,N/A,,Mostly Cloudy,180,2013-10-21 17:50:00
7:00 PM,64,57,71,29.69,19,South,18.4,,,,Partly Cloudy,190,2013-10-21 18:00:00
7:20 PM,62.6,57.2,82,29.68,6.2,South,17.3,-,N/A,,Partly Cloudy,180,2013-10-21 18:20:00
7:50 PM,62.6,57.2,82,29.65,6.2,South,11.5,-,N/A,,Partly Cloudy,170,2013-10-21 18:50:00
8:20 PM,62.6,57.2,82,29.65,6.2,SSE,13.8,-,N/A,,Partly Cloudy,150,2013-10-21 19:20:00
8:50 PM,62.6,59.0,88,29.62,6.2,SSE,17.3,-,N/A,,Partly Cloudy,150,2013-10-21 19:50:00
10:00 PM,62,58,81,29.62,16,SSE,20.7,,,,Partly Cloudy,150,2013-10-21 21:00:00